Time;durP1;ratioP1;P1;durP2;ratioP2;P2;SDS_P1;SDS_P2;PMS_P1;PMS_P2;Temp;Humidity;BMP_temperature;BMP_pressure;BME280_temperature;BME280_humidity;BME280_pressure;Samples;Min_cycle;Max_cycle;Signal;HPM_P1;HPM_P2
2022/10/15 00:01:12;;;;;;;9.20;7.15;;;15.40;93.60;;;;;;4917250;29;20546;-77
2022/10/15 00:03:40;;;;;;;10.45;6.78;;;15.40;93.70;;;;;;4920818;29;20503;-77
2022/10/15 00:06:11;;;;;;;10.02;6.85;;;15.40;94.00;;;;;;4916535;29;20032;-77
2022/10/15 00:08:38;;;;;;;10.85;7.78;;;15.40;94.10;;;;;;4920708;29;20157;-70
2022/10/15 00:11:06;;;;;;;10.43;6.68;;;15.40;94.30;;;;;;4918953;29;20036;-70
2022/10/15 00:13:33;;;;;;;11.05;7.07;;;15.30;94.40;;;;;;4917108;29;20129;-70
2022/10/15 00:15:59;;;;;;;11.20;7.60;;;15.40;94.60;;;;;;4919327;29;20068;-70
2022/10/15 00:18:25;;;;;;;11.35;7.30;;;15.40;94.60;;;;;;4910220;29;20102;-70
2022/10/15 00:20:51;;;;;;;11.98;8.25;;;15.40;94.80;;;;;;4915988;29;20036;-70
2022/10/15 00:23:16;;;;;;;11.23;7.47;;;15.40;95.00;;;;;;4913493;29;20406;-70
2022/10/15 00:25:42;;;;;;;10.25;7.68;;;15.40;95.10;;;;;;4913349;29;20411;-70
2022/10/15 00:28:08;;;;;;;11.90;7.90;;;15.40;95.50;;;;;;4918050;29;20047;-70
2022/10/15 00:30:33;;;;;;;13.65;8.15;;;15.40;95.40;;;;;;4918359;29;20044;-70
2022/10/15 00:32:59;;;;;;;11.50;7.95;;;15.40;95.50;;;;;;4924885;29;20142;-70
2022/10/15 00:35:25;;;;;;;13.30;8.38;;;15.40;95.50;;;;;;4922079;29;20032;-70
2022/10/15 00:37:51;;;;;;;14.23;8.98;;;15.50;95.60;;;;;;4921760;29;20034;-70
2022/10/15 00:40:18;;;;;;;15.95;8.80;;;15.50;95.70;;;;;;4909962;29;20126;-70
2022/10/15 00:42:44;;;;;;;13.00;8.52;;;15.50;95.70;;;;;;4916182;29;20032;-70
2022/10/15 00:45:14;;;;;;;14.50;9.23;;;15.50;95.80;;;;;;4924650;29;20642;-69
2022/10/15 00:47:46;;;;;;;13.95;9.10;;;15.50;95.80;;;;;;4909890;29;20032;-69
2022/10/15 00:50:23;;;;;;;14.32;9.35;;;15.50;95.70;;;;;;4918712;29;20685;-70
2022/10/15 00:53:00;;;;;;;15.80;8.90;;;15.50;95.70;;;;;;4909821;29;20568;-70
2022/10/15 00:55:29;;;;;;;15.98;10.55;;;15.50;95.80;;;;;;4911328;29;20750;-70
2022/10/15 00:58:00;;;;;;;15.10;9.32;;;15.60;95.80;;;;;;4916384;29;20114;-70
2022/10/15 01:00:26;;;;;;;12.00;8.98;;;15.50;95.90;;;;;;4923326;29;20082;-70
2022/10/15 01:02:52;;;;;;;14.48;9.60;;;15.50;95.80;;;;;;4914019;29;20042;-69
2022/10/15 01:05:18;;;;;;;14.13;9.60;;;15.50;95.90;;;;;;4924041;29;20554;-70
2022/10/15 01:07:44;;;;;;;17.30;10.43;;;15.50;96.00;;;;;;4917317;29;20028;-70
2022/10/15 01:10:10;;;;;;;19.40;11.50;;;15.50;95.90;;;;;;4927253;29;20028;-70
2022/10/15 01:13:22;;;;;;;15.20;9.65;;;15.50;95.90;;;;;;4919647;29;20040;-69
2022/10/15 01:16:00;;;;;;;14.25;9.32;;;15.50;96.00;;;;;;4911735;29;20035;-70
2022/10/15 01:18:38;;;;;;;20.67;11.00;;;15.50;96.00;;;;;;4930953;29;20064;-70
2022/10/15 01:21:45;;;;;;;16.00;10.48;;;15.60;95.80;;;;;;4915487;29;20040;-71
2022/10/15 01:24:59;;;;;;;15.27;10.18;;;15.60;95.70;;;;;;4914734;29;20805;-70
2022/10/15 01:27:36;;;;;;;16.20;10.80;;;15.60;95.80;;;;;;4921631;29;20484;-70
2022/10/15 01:30:12;;;;;;;16.35;10.95;;;15.60;95.80;;;;;;4923229;29;20032;-71
2022/10/15 01:32:44;;;;;;;16.50;10.20;;;15.60;95.80;;;;;;4916194;29;20358;-70
2022/10/15 01:35:48;;;;;;;16.20;10.63;;;15.50;95.80;;;;;;4919660;29;20039;-70
2022/10/15 01:38:43;;;;;;;18.08;11.10;;;15.50;95.90;;;;;;4923656;29;20055;-70
2022/10/15 01:41:15;;;;;;;14.45;10.27;;;15.40;96.00;;;;;;4930449;29;20043;-70
2022/10/15 01:43:58;;;;;;;17.55;10.45;;;15.40;96.00;;;;;;4930775;29;20083;-70
2022/10/15 01:47:07;;;;;;;16.15;10.30;;;15.40;96.10;;;;;;4914326;29;20631;-70
2022/10/15 01:49:40;;;;;;;15.88;9.95;;;15.40;96.00;;;;;;4918627;29;20167;-70
2022/10/15 01:52:11;;;;;;;18.17;10.88;;;15.40;95.90;;;;;;4925026;29;20028;-70
2022/10/15 01:54:39;;;;;;;16.52;10.73;;;15.50;95.90;;;;;;4917173;29;20027;-70
2022/10/15 01:57:06;;;;;;;21.17;11.27;;;15.60;95.80;;;;;;4920402;29;20450;-69
2022/10/15 01:59:33;;;;;;;16.63;11.07;;;15.60;95.70;;;;;;4908006;29;20051;-70
2022/10/15 02:01:59;;;;;;;18.98;11.05;;;15.50;95.80;;;;;;4917415;29;20040;-70
2022/10/15 02:04:28;;;;;;;16.52;10.75;;;15.40;95.90;;;;;;4920585;29;20039;-70
2022/10/15 02:06:57;;;;;;;16.55;10.55;;;15.40;96.00;;;;;;4910090;29;20052;-77
2022/10/15 02:09:51;;;;;;;19.77;11.40;;;15.50;96.00;;;;;;4912613;29;20065;-77
2022/10/15 02:12:54;;;;;;;15.93;11.02;;;15.40;96.00;;;;;;4925843;29;20103;-77
2022/10/15 02:15:44;;;;;;;16.30;11.40;;;15.40;96.00;;;;;;4922578;29;20047;-77
2022/10/15 02:18:40;;;;;;;19.50;11.50;;;15.50;95.90;;;;;;4920974;29;20035;-78
2022/10/15 02:21:06;;;;;;;18.58;11.48;;;15.40;96.00;;;;;;4922837;29;20401;-78
2022/10/15 02:23:52;;;;;;;15.95;10.18;;;15.40;96.00;;;;;;4918058;29;20038;-77
2022/10/15 02:26:26;;;;;;;15.07;9.93;;;15.40;96.00;;;;;;4916761;29;20036;-77
2022/10/15 02:28:58;;;;;;;18.48;11.07;;;15.40;96.00;;;;;;4913596;29;20070;-77
2022/10/15 02:31:25;;;;;;;17.63;11.43;;;15.50;95.80;;;;;;4919197;29;20028;-70
2022/10/15 02:33:54;;;;;;;14.25;10.52;;;15.50;95.70;;;;;;4917228;29;20042;-70
2022/10/15 02:36:21;;;;;;;15.63;10.00;;;15.50;95.70;;;;;;4923752;29;20063;-70
2022/10/15 02:38:49;;;;;;;16.35;11.27;;;15.50;95.70;;;;;;4915531;29;20039;-70
2022/10/15 02:41:15;;;;;;;17.40;10.23;;;15.50;96.00;;;;;;4920425;29;20480;-70
2022/10/15 02:43:41;;;;;;;15.82;10.75;;;15.40;95.70;;;;;;4912066;29;20082;-70
2022/10/15 02:46:10;;;;;;;18.38;11.32;;;15.50;95.90;;;;;;4914961;29;20568;-70
2022/10/15 02:48:36;;;;;;;16.17;10.20;;;15.50;95.80;;;;;;4918781;29;20050;-70
2022/10/15 02:51:03;;;;;;;14.10;10.40;;;15.50;95.90;;;;;;4921685;29;20044;-70
2022/10/15 02:53:31;;;;;;;13.30;9.35;;;15.40;95.90;;;;;;4918531;29;20031;-70
2022/10/15 02:55:57;;;;;;;16.25;9.23;;;15.40;95.90;;;;;;4920728;29;20028;-70
2022/10/15 02:58:23;;;;;;;15.63;9.77;;;15.50;95.90;;;;;;4920145;29;20034;-70
2022/10/15 03:00:50;;;;;;;13.65;10.10;;;15.50;95.80;;;;;;4920309;29;20076;-69
2022/10/15 03:03:16;;;;;;;15.80;10.77;;;15.60;95.70;;;;;;4931352;29;20059;-70
2022/10/15 03:05:44;;;;;;;16.48;10.63;;;15.50;95.60;;;;;;4918155;29;20492;-70
2022/10/15 03:08:11;;;;;;;17.52;10.32;;;15.60;95.70;;;;;;4925613;29;20548;-70
2022/10/15 03:10:37;;;;;;;15.85;10.20;;;15.60;95.60;;;;;;4919628;29;20059;-69
2022/10/15 03:13:04;;;;;;;15.77;10.95;;;15.60;95.60;;;;;;4922069;29;20040;-70
2022/10/15 03:15:35;;;;;;;16.95;10.70;;;15.60;95.60;;;;;;4922179;29;20039;-70
2022/10/15 03:18:02;;;;;;;15.30;10.57;;;15.60;95.70;;;;;;4918477;29;20119;-70
2022/10/15 03:20:28;;;;;;;14.07;9.73;;;15.60;95.80;;;;;;4917722;29;20039;-70
2022/10/15 03:22:54;;;;;;;15.98;10.05;;;15.50;95.90;;;;;;4919930;29;20028;-70
2022/10/15 03:25:21;;;;;;;18.77;10.65;;;15.50;95.80;;;;;;4913132;29;20045;-70
2022/10/15 03:27:56;;;;;;;16.90;9.05;;;15.50;95.90;;;;;;4924220;29;20036;-70
2022/10/15 03:30:28;;;;;;;15.57;9.63;;;15.40;95.90;;;;;;4918704;29;20482;-70
2022/10/15 03:32:54;;;;;;;13.65;9.23;;;15.40;96.10;;;;;;4921518;29;20055;-70
2022/10/15 03:35:21;;;;;;;13.90;10.15;;;15.50;95.80;;;;;;4919701;29;20583;-70
2022/10/15 03:37:46;;;;;;;16.45;11.00;;;15.50;95.90;;;;;;4920906;29;20024;-70
2022/10/15 03:40:12;;;;;;;13.57;10.25;;;15.50;95.90;;;;;;4920741;29;20585;-70
2022/10/15 03:42:38;;;;;;;16.27;10.50;;;15.40;95.90;;;;;;4922522;29;20795;-70
2022/10/15 03:45:08;;;;;;;12.68;8.88;;;15.50;96.00;;;;;;4923288;29;20074;-78
2022/10/15 03:47:34;;;;;;;15.27;10.45;;;15.50;95.90;;;;;;4923079;29;20086;-78
2022/10/15 03:50:00;;;;;;;13.75;9.35;;;15.50;95.90;;;;;;4929336;29;20356;-78
2022/10/15 03:52:26;;;;;;;15.20;9.50;;;15.50;95.90;;;;;;4918432;29;20151;-78
2022/10/15 03:54:53;;;;;;;13.20;9.30;;;15.50;95.90;;;;;;4925616;29;20058;-78
2022/10/15 03:57:19;;;;;;;13.45;8.98;;;15.50;95.80;;;;;;4913230;29;20080;-78
2022/10/15 03:59:51;;;;;;;12.88;9.10;;;15.50;95.80;;;;;;4917774;29;20508;-77
2022/10/15 04:02:18;;;;;;;12.55;8.55;;;15.50;95.70;;;;;;4915126;29;20059;-78
2022/10/15 04:04:44;;;;;;;11.38;8.63;;;15.50;95.70;;;;;;4917447;29;20043;-77
2022/10/15 04:07:10;;;;;;;12.68;9.23;;;15.50;95.80;;;;;;4919842;29;20028;-78
2022/10/15 04:09:37;;;;;;;13.70;8.80;;;15.50;95.70;;;;;;4911954;29;20060;-77
2022/10/15 04:12:25;;;;;;;13.10;8.30;;;15.50;95.70;;;;;;4926042;29;20024;-77
2022/10/15 04:14:51;;;;;;;15.15;9.30;;;15.50;95.90;;;;;;4922081;29;20024;-78
2022/10/15 04:17:17;;;;;;;10.23;7.95;;;15.50;95.90;;;;;;4916205;29;20063;-78
2022/10/15 04:19:43;;;;;;;14.80;9.27;;;15.50;96.00;;;;;;4929117;29;20028;-77
2022/10/15 04:22:08;;;;;;;11.63;8.13;;;15.50;96.10;;;;;;4921091;29;20082;-78
2022/10/15 04:24:41;;;;;;;12.43;8.27;;;15.40;96.00;;;;;;4921278;29;20038;-77
2022/10/15 04:27:07;;;;;;;17.25;8.95;;;15.50;96.10;;;;;;4922782;29;20756;-78
2022/10/15 04:29:33;;;;;;;15.13;8.32;;;15.50;96.20;;;;;;4919015;29;20501;-77
2022/10/15 04:32:14;;;;;;;11.40;8.52;;;15.50;96.20;;;;;;4933324;29;20027;-78
2022/10/15 04:34:40;;;;;;;11.27;8.40;;;15.40;96.30;;;;;;4916021;29;20497;-78
2022/10/15 04:37:06;;;;;;;16.33;9.13;;;15.40;96.30;;;;;;4918506;29;20042;-80
2022/10/15 04:39:33;;;;;;;11.43;8.23;;;15.50;96.40;;;;;;4921683;29;20618;-79
2022/10/15 04:41:59;;;;;;;10.23;7.45;;;15.50;96.30;;;;;;4925855;29;20031;-79
2022/10/15 04:44:28;;;;;;;9.45;6.95;;;15.50;96.30;;;;;;4925200;29;20061;-80
2022/10/15 04:46:56;;;;;;;12.32;7.80;;;15.50;96.30;;;;;;4921157;29;20095;-79
2022/10/15 04:49:30;;;;;;;12.48;8.55;;;15.50;96.20;;;;;;4921014;29;20110;-79
2022/10/15 04:51:56;;;;;;;12.77;8.02;;;15.50;96.30;;;;;;4909665;29;20040;-80
2022/10/15 04:54:42;;;;;;;13.77;8.68;;;15.50;96.20;;;;;;4914655;29;20047;-78
2022/10/15 04:57:08;;;;;;;10.52;7.13;;;15.50;96.20;;;;;;4923471;29;20039;-78
2022/10/15 04:59:34;;;;;;;13.38;7.45;;;15.40;96.00;;;;;;4918817;29;20171;-79
2022/10/15 05:02:27;;;;;;;9.93;6.68;;;15.40;95.90;;;;;;4919613;29;20043;-79
2022/10/15 05:05:05;;;;;;;13.20;8.93;;;15.30;95.70;;;;;;4924344;29;20031;-79
2022/10/15 05:07:31;;;;;;;13.27;7.90;;;15.20;96.00;;;;;;4924389;29;20028;-79
2022/10/15 05:09:57;;;;;;;12.43;8.45;;;15.20;96.10;;;;;;4919861;29;20036;-78
2022/10/15 05:12:23;;;;;;;10.43;7.22;;;15.20;96.00;;;;;;4921348;29;20067;-75
2022/10/15 05:14:49;;;;;;;10.10;7.35;;;15.10;95.80;;;;;;4922565;29;20075;-75
2022/10/15 05:17:20;;;;;;;9.88;6.93;;;15.10;95.80;;;;;;4932132;29;20019;-74
2022/10/15 05:19:47;;;;;;;9.25;7.05;;;15.00;95.80;;;;;;4919116;29;20032;-79
2022/10/15 05:22:20;;;;;;;9.18;7.40;;;14.90;95.70;;;;;;4920840;29;20024;-78
2022/10/15 05:24:50;;;;;;;10.02;7.28;;;14.90;95.70;;;;;;4920312;29;20024;-78
2022/10/15 05:27:28;;;;;;;11.60;7.95;;;14.90;95.80;;;;;;4923271;29;20028;-78
2022/10/15 05:29:53;;;;;;;12.52;7.43;;;14.90;96.20;;;;;;4916892;29;20071;-78
2022/10/15 05:32:19;;;;;;;14.90;9.38;;;14.80;96.30;;;;;;4925238;29;20031;-78
2022/10/15 05:34:45;;;;;;;11.02;8.75;;;14.80;96.60;;;;;;4923590;29;20484;-83
2022/10/15 05:37:14;;;;;;;9.88;7.30;;;14.80;96.70;;;;;;4930921;29;20032;-78
2022/10/15 05:39:41;;;;;;;12.35;7.65;;;14.90;96.80;;;;;;4921529;29;20028;-74
2022/10/15 05:42:09;;;;;;;10.63;7.65;;;14.90;96.90;;;;;;4916375;29;20035;-79
2022/10/15 05:44:43;;;;;;;8.60;7.15;;;14.90;96.90;;;;;;4923125;29;20032;-76
2022/10/15 05:47:11;;;;;;;9.75;7.85;;;15.00;96.90;;;;;;4923119;29;20035;-77
2022/10/15 05:49:37;;;;;;;9.27;6.88;;;15.00;96.80;;;;;;4905612;29;20035;-77
2022/10/15 05:52:09;;;;;;;10.95;7.20;;;15.00;96.80;;;;;;4920422;29;20040;-77
2022/10/15 05:54:54;;;;;;;13.38;8.27;;;15.00;96.80;;;;;;4917972;29;20071;-77
2022/10/15 05:57:21;;;;;;;11.23;7.70;;;15.00;96.90;;;;;;4919963;29;20028;-81
2022/10/15 05:59:46;;;;;;;13.68;8.38;;;15.00;96.90;;;;;;4918350;29;20187;-77
2022/10/15 06:02:14;;;;;;;11.32;7.97;;;15.00;96.90;;;;;;4920736;29;20039;-77
2022/10/15 06:04:41;;;;;;;12.70;8.55;;;15.00;96.90;;;;;;4921100;29;20039;-76
2022/10/15 06:07:07;;;;;;;10.43;8.32;;;15.00;96.90;;;;;;4916980;29;20085;-77
2022/10/15 06:09:33;;;;;;;11.68;7.82;;;15.00;97.00;;;;;;4921835;29;20877;-77
2022/10/15 06:11:58;;;;;;;13.13;8.50;;;15.00;96.90;;;;;;4920912;29;20512;-77
2022/10/15 06:14:24;;;;;;;13.73;7.72;;;15.00;96.80;;;;;;4923189;29;20063;-78
2022/10/15 06:16:53;;;;;;;10.77;6.95;;;15.00;96.60;;;;;;4912821;29;20032;-78
2022/10/15 06:19:19;;;;;;;10.23;7.97;;;15.00;96.60;;;;;;4917586;29;20732;-76
2022/10/15 06:21:45;;;;;;;10.15;7.68;;;15.00;96.60;;;;;;4911052;29;20032;-77
2022/10/15 06:24:11;;;;;;;10.23;7.45;;;14.90;96.60;;;;;;4920489;29;20040;-77
2022/10/15 06:26:37;;;;;;;12.88;8.10;;;14.90;96.80;;;;;;4919210;29;20512;-79
2022/10/15 06:29:03;;;;;;;10.40;7.10;;;14.90;96.90;;;;;;4911687;29;20111;-69
2022/10/15 06:31:29;;;;;;;11.27;8.88;;;14.90;97.00;;;;;;4914324;29;20795;-71
2022/10/15 06:33:55;;;;;;;13.27;9.02;;;14.90;97.20;;;;;;4920244;29;20035;-76
2022/10/15 06:36:23;;;;;;;12.23;7.50;;;14.90;97.70;;;;;;4911452;29;20034;-70
2022/10/15 06:38:48;;;;;;;9.88;7.18;;;14.90;97.40;;;;;;4930275;29;20075;-70
2022/10/15 06:41:15;;;;;;;16.02;9.25;;;14.90;97.20;;;;;;4912247;29;20119;-68
2022/10/15 06:43:41;;;;;;;11.77;8.05;;;15.00;97.30;;;;;;4911725;29;20114;-71
2022/10/15 06:46:07;;;;;;;13.80;9.68;;;15.00;97.50;;;;;;4916995;29;20477;-70
2022/10/15 06:48:33;;;;;;;14.38;9.63;;;15.10;97.60;;;;;;4915161;29;20039;-70
2022/10/15 06:51:00;;;;;;;13.95;9.25;;;15.20;97.60;;;;;;4906734;29;20073;-68
2022/10/15 06:53:26;;;;;;;15.52;9.18;;;15.20;97.60;;;;;;4914868;29;20040;-68
2022/10/15 06:55:56;;;;;;;14.18;9.45;;;15.30;97.50;;;;;;4913923;29;20032;-68
2022/10/15 06:58:22;;;;;;;11.98;8.43;;;15.40;97.40;;;;;;4912528;29;20641;-68
2022/10/15 07:00:48;;;;;;;13.68;9.07;;;15.40;97.20;;;;;;4916695;29;20047;-68
2022/10/15 07:03:14;;;;;;;11.90;8.57;;;15.50;97.20;;;;;;4915979;29;20046;-68
2022/10/15 07:05:39;;;;;;;15.10;8.50;;;15.60;97.00;;;;;;4929811;29;20051;-68
2022/10/15 07:08:05;;;;;;;12.55;8.32;;;15.70;96.90;;;;;;4918712;29;20063;-68
2022/10/15 07:10:31;;;;;;;10.43;7.15;;;15.80;96.80;;;;;;4918185;29;20842;-73
2022/10/15 07:13:00;;;;;;;9.95;7.13;;;15.80;96.70;;;;;;4917488;29;20084;-68
2022/10/15 07:15:27;;;;;;;9.43;6.93;;;15.90;96.60;;;;;;4920974;29;20027;-68
2022/10/15 07:18:00;;;;;;;10.32;7.57;;;16.00;96.60;;;;;;4919196;29;20603;-68
2022/10/15 07:20:29;;;;;;;8.93;6.97;;;16.00;96.60;;;;;;4923380;29;20040;-69
2022/10/15 07:22:59;;;;;;;12.23;7.75;;;16.10;96.50;;;;;;4918931;29;20102;-69
2022/10/15 07:25:28;;;;;;;10.10;7.90;;;16.10;96.40;;;;;;4922871;29;20370;-69
2022/10/15 07:27:55;;;;;;;11.35;7.85;;;16.20;96.40;;;;;;4910777;29;20038;-69
2022/10/15 07:30:22;;;;;;;12.13;7.90;;;16.30;96.30;;;;;;4918639;29;20110;-69
2022/10/15 07:32:50;;;;;;;10.52;7.45;;;16.30;96.10;;;;;;4917185;29;20126;-71
2022/10/15 07:35:16;;;;;;;10.55;7.65;;;16.50;96.00;;;;;;4919114;29;20804;-72
2022/10/15 07:37:41;;;;;;;11.60;7.70;;;16.50;95.90;;;;;;4920163;29;20035;-71
2022/10/15 07:40:08;;;;;;;11.02;7.80;;;16.60;95.80;;;;;;4914003;29;20634;-70
2022/10/15 07:42:34;;;;;;;10.18;7.63;;;16.70;95.60;;;;;;4913667;29;20114;-77
2022/10/15 07:44:59;;;;;;;12.35;7.45;;;16.70;95.60;;;;;;4920089;29;20097;-70
2022/10/15 07:47:25;;;;;;;8.65;6.57;;;16.80;95.50;;;;;;4915087;29;20039;-72
2022/10/15 07:49:51;;;;;;;11.27;7.22;;;16.90;95.20;;;;;;4911161;29;20027;-70
2022/10/15 07:52:17;;;;;;;9.10;6.20;;;17.00;95.20;;;;;;4918389;29;20416;-70
2022/10/15 07:54:42;;;;;;;8.23;6.25;;;17.10;95.20;;;;;;4913579;29;20039;-79
2022/10/15 07:57:08;;;;;;;8.73;6.30;;;17.20;95.00;;;;;;4919112;29;20730;-77
2022/10/15 07:59:34;;;;;;;8.63;5.97;;;17.30;94.60;;;;;;4924144;29;20035;-74
2022/10/15 08:02:00;;;;;;;7.18;5.68;;;17.40;94.50;;;;;;4916992;29;20043;-76
2022/10/15 08:04:26;;;;;;;7.47;5.40;;;17.40;94.50;;;;;;4918263;29;20086;-77
2022/10/15 08:06:52;;;;;;;9.45;6.13;;;17.50;94.40;;;;;;4920226;29;20028;-76
2022/10/15 08:09:18;;;;;;;9.40;6.03;;;17.60;93.80;;;;;;4916379;29;20451;-83
2022/10/15 08:11:44;;;;;;;9.68;6.10;;;17.60;93.60;;;;;;4918023;29;20456;-76
2022/10/15 08:14:11;;;;;;;11.63;6.72;;;17.70;93.40;;;;;;4920899;29;20036;-74
2022/10/15 08:16:36;;;;;;;9.30;6.30;;;17.70;93.30;;;;;;4923486;29;20082;-75
2022/10/15 08:19:02;;;;;;;7.63;5.82;;;17.70;93.20;;;;;;4914108;29;20023;-75
2022/10/15 08:21:28;;;;;;;10.18;7.13;;;17.60;93.20;;;;;;4919154;29;20046;-76
2022/10/15 08:23:54;;;;;;;8.77;6.38;;;17.70;93.40;;;;;;4918656;29;20078;-76
2022/10/15 08:26:28;;;;;;;9.35;5.82;;;17.70;93.30;;;;;;4915714;29;20508;-75
2022/10/15 08:28:54;;;;;;;7.38;5.35;;;17.70;93.80;;;;;;4921291;29;20070;-77
2022/10/15 08:31:21;;;;;;;8.27;6.38;;;17.80;93.40;;;;;;4922055;29;20035;-76
2022/10/15 08:33:47;;;;;;;7.50;5.90;;;17.80;93.30;;;;;;4923088;29;20032;-76
2022/10/15 08:36:12;;;;;;;6.95;5.45;;;17.90;93.30;;;;;;4914236;29;20734;-77
2022/10/15 08:38:39;;;;;;;12.63;6.30;;;18.00;93.00;;;;;;4918503;29;20028;-78
2022/10/15 08:41:33;;;;;;;7.07;5.82;;;18.00;93.00;;;;;;4915514;29;20059;-78
2022/10/15 08:44:00;;;;;;;8.45;5.57;;;18.00;93.10;;;;;;4921546;29;20127;-77
2022/10/15 08:46:47;;;;;;;7.63;5.70;;;18.10;92.80;;;;;;4921466;29;20039;-78
2022/10/15 08:49:26;;;;;;;11.55;7.00;;;18.20;92.30;;;;;;4921722;29;20091;-78
2022/10/15 08:51:59;;;;;;;7.15;5.57;;;18.20;92.30;;;;;;4918522;29;20035;-78
2022/10/15 08:54:29;;;;;;;6.78;4.88;;;18.30;92.20;;;;;;4919114;29;20040;-78
2022/10/15 08:57:23;;;;;;;8.02;6.28;;;18.30;92.10;;;;;;4917455;29;20048;-79
2022/10/15 09:00:03;;;;;;;5.82;4.88;;;18.30;92.20;;;;;;4922454;29;20122;-76
2022/10/15 09:02:41;;;;;;;6.53;4.95;;;18.40;91.90;;;;;;4924824;29;20497;-76
2022/10/15 09:05:23;;;;;;;5.90;4.50;;;18.60;92.00;;;;;;4922010;29;20035;-76
2022/10/15 09:08:02;;;;;;;8.35;5.15;;;18.70;91.70;;;;;;4916573;29;20062;-76
2022/10/15 09:10:42;;;;;;;6.32;4.63;;;18.70;91.60;;;;;;4915392;29;20039;-72
2022/10/15 09:13:17;;;;;;;6.95;5.18;;;18.80;91.20;;;;;;4916876;29;20416;-77
2022/10/15 09:15:50;;;;;;;7.82;4.95;;;18.90;91.00;;;;;;4921358;29;20063;-74
2022/10/15 09:18:21;;;;;;;8.20;5.18;;;19.00;90.80;;;;;;4910525;29;20039;-74
2022/10/15 09:20:47;;;;;;;6.22;4.88;;;19.00;90.60;;;;;;4917998;29;20145;-74
2022/10/15 09:23:18;;;;;;;6.05;4.90;;;19.00;90.50;;;;;;4914496;29;20055;-74
2022/10/15 09:25:48;;;;;;;7.45;5.05;;;19.00;91.00;;;;;;4915255;29;20596;-75
2022/10/15 09:28:18;;;;;;;9.02;4.97;;;19.00;90.70;;;;;;4917858;29;20658;-76
2022/10/15 09:30:56;;;;;;;5.53;4.55;;;19.10;90.60;;;;;;4913590;29;20032;-75
2022/10/15 09:33:40;;;;;;;7.40;5.85;;;19.10;90.70;;;;;;4916774;29;20036;-75
2022/10/15 09:36:18;;;;;;;8.30;6.10;;;19.20;90.40;;;;;;4913205;29;20070;-76
2022/10/15 09:38:53;;;;;;;8.88;6.93;;;19.20;90.20;;;;;;4916498;29;20082;-76
2022/10/15 09:41:28;;;;;;;9.20;6.03;;;19.10;89.70;;;;;;4920267;29;20179;-76
2022/10/15 09:43:57;;;;;;;7.82;5.68;;;19.10;89.80;;;;;;4915461;29;20055;-75
2022/10/15 09:46:23;;;;;;;6.65;5.50;;;19.10;90.00;;;;;;4918370;29;20099;-76
2022/10/15 09:49:18;;;;;;;8.75;5.25;;;19.10;90.10;;;;;;4922539;29;20102;-76
2022/10/15 09:52:12;;;;;;;8.32;5.40;;;19.10;90.50;;;;;;4912591;29;20788;-76
2022/10/15 09:55:02;;;;;;;9.45;5.65;;;19.20;90.70;;;;;;4917361;29;20433;-76
2022/10/15 09:57:31;;;;;;;8.23;6.15;;;19.30;90.00;;;;;;4916682;29;20032;-75
2022/10/15 10:00:00;;;;;;;8.13;6.00;;;19.40;89.70;;;;;;4916854;29;20071;-75
2022/10/15 10:02:26;;;;;;;6.43;5.15;;;19.50;89.10;;;;;;4919132;29;20090;-76
2022/10/15 10:04:53;;;;;;;8.40;6.18;;;19.60;88.60;;;;;;4918948;29;20039;-75
2022/10/15 10:07:34;;;;;;;7.68;6.07;;;19.70;88.30;;;;;;4917702;29;20491;-76
2022/10/15 10:10:21;;;;;;;9.63;6.32;;;19.80;87.70;;;;;;4913321;29;20038;-75
2022/10/15 10:12:47;;;;;;;7.78;6.10;;;19.80;87.80;;;;;;4921645;29;20099;-76
2022/10/15 10:15:25;;;;;;;8.68;6.78;;;19.80;87.70;;;;;;4914588;29;20035;-76
2022/10/15 10:17:55;;;;;;;8.93;6.80;;;19.90;86.80;;;;;;4923371;29;20495;-76
2022/10/15 10:20:24;;;;;;;10.93;7.07;;;19.90;86.30;;;;;;4911709;29;20034;-76
2022/10/15 10:22:55;;;;;;;8.02;6.00;;;19.90;86.60;;;;;;4917974;29;20118;-76
2022/10/15 10:25:30;;;;;;;8.82;6.63;;;19.80;86.40;;;;;;4919836;29;20050;-76
2022/10/15 10:28:05;;;;;;;9.80;6.77;;;19.90;86.80;;;;;;4918973;29;20560;-76
2022/10/15 10:30:37;;;;;;;10.00;6.65;;;19.90;86.50;;;;;;4913180;29;20638;-76
2022/10/15 10:33:04;;;;;;;10.38;5.85;;;20.10;85.80;;;;;;4923034;29;20110;-76
2022/10/15 10:35:51;;;;;;;8.05;6.25;;;20.10;85.60;;;;;;4918683;29;20035;-76
2022/10/15 10:38:21;;;;;;;12.30;8.45;;;20.00;85.80;;;;;;4912668;29;20568;-76
2022/10/15 10:40:55;;;;;;;17.90;13.30;;;20.00;86.00;;;;;;4916671;29;20384;-76
2022/10/15 10:43:27;;;;;;;9.90;7.70;;;19.90;86.40;;;;;;4914712;29;20023;-76
2022/10/15 10:46:02;;;;;;;7.97;6.28;;;20.00;86.60;;;;;;4916685;29;20036;-75
2022/10/15 10:48:40;;;;;;;8.68;7.00;;;20.10;87.00;;;;;;4922765;29;20035;-76
2022/10/15 10:51:26;;;;;;;8.68;6.13;;;20.10;85.90;;;;;;4922149;29;20039;-78
2022/10/15 10:53:58;;;;;;;;;;;20.00;85.70;;;;;;4917883;29;20031;-78
2022/10/15 10:56:33;;;;;;;13.02;9.45;;;20.00;85.90;;;;;;4913121;29;19914;-78
2022/10/15 10:59:39;;;;;;;14.57;10.75;;;19.90;85.90;;;;;;4917877;29;20119;-78
2022/10/15 11:02:11;;;;;;;7.53;6.22;;;19.80;86.60;;;;;;4919820;29;20645;-79
2022/10/15 11:04:37;;;;;;;12.02;8.23;;;19.80;87.80;;;;;;4916705;29;20127;-81
2022/10/15 11:07:07;;;;;;;8.02;6.38;;;19.80;87.30;;;;;;4921692;29;20035;-80
2022/10/15 11:09:41;;;;;;;7.70;6.07;;;19.80;87.60;;;;;;4915080;29;20094;-80
2022/10/15 11:12:44;;;;;;;6.28;5.68;;;19.80;87.50;;;;;;4919159;29;20386;-79
2022/10/15 11:15:32;;;;;;;7.72;5.18;;;19.80;87.10;;;;;;4928159;29;20058;-80
2022/10/15 11:18:32;;;;;;;6.28;4.80;;;19.80;86.90;;;;;;4917660;29;20054;-80
2022/10/15 11:21:13;;;;;;;8.43;4.88;;;19.80;87.20;;;;;;4909890;29;20050;-79
2022/10/15 11:23:42;;;;;;;8.73;7.15;;;20.10;87.30;;;;;;4909850;29;20755;-81
2022/10/15 11:26:45;;;;;;;13.10;6.05;;;20.30;86.50;;;;;;4918216;29;20316;-80
2022/10/15 11:29:37;;;;;;;8.02;5.03;;;20.40;85.70;;;;;;4917417;29;20075;-80
2022/10/15 11:32:21;;;;;;;13.82;6.47;;;20.30;84.80;;;;;;4926020;29;20849;-79
2022/10/15 11:37:41;;;;;;;11.60;7.28;;;20.40;83.00;;;;;;4879879;29;20056;-69
2022/10/15 11:40:35;;;;;;;28.83;17.27;;;20.40;82.60;;;;;;4893958;29;20099;-71
2022/10/15 11:43:08;;;;;;;10.65;6.43;;;20.40;81.80;;;;;;4895945;29;20120;-71
2022/10/15 11:46:05;;;;;;;37.65;21.73;;;20.30;82.70;;;;;;4900065;29;20032;-71
2022/10/15 11:48:39;;;;;;;25.77;14.75;;;20.30;83.00;;;;;;4911819;29;20028;-71
2022/10/15 11:51:32;;;;;;;47.85;28.00;;;20.30;83.60;;;;;;4896197;29;20055;-71
2022/10/15 11:54:20;;;;;;;37.20;21.45;;;20.20;83.00;;;;;;4903219;29;20115;-71
2022/10/15 11:56:50;;;;;;;54.30;30.42;;;20.30;83.30;;;;;;4900618;29;20069;-69
2022/10/15 11:59:37;;;;;;;25.17;13.90;;;20.40;82.60;;;;;;4903403;29;20036;-71
2022/10/15 12:02:25;;;;;;;16.77;10.30;;;20.40;82.50;;;;;;4894678;29;20029;-69
2022/10/15 12:04:59;;;;;;;4.88;3.63;;;20.30;82.00;;;;;;4899468;29;20111;-70
2022/10/15 12:07:32;;;;;;;21.38;11.80;;;20.30;82.20;;;;;;4913187;29;20071;-71
2022/10/15 12:10:07;;;;;;;16.50;10.90;;;20.20;82.50;;;;;;4907744;29;20091;-70
2022/10/15 12:12:41;;;;;;;11.40;7.60;;;20.20;82.00;;;;;;4895843;29;20043;-70
2022/10/15 12:15:28;;;;;;;5.57;4.22;;;20.10;83.20;;;;;;4899692;29;21163;-70
2022/10/15 12:18:18;;;;;;;11.55;7.03;;;20.30;82.70;;;;;;4892553;29;20033;-71
2022/10/15 12:20:46;;;;;;;6.63;4.38;;;20.30;81.80;;;;;;4900642;29;20032;-71
2022/10/15 12:23:25;;;;;;;8.73;5.28;;;20.20;81.90;;;;;;4903457;29;20867;-69
2022/10/15 12:25:51;;;;;;;3.75;2.65;;;20.10;81.90;;;;;;4900866;29;20737;-70
2022/10/15 12:28:25;;;;;;;5.47;3.28;;;20.10;82.90;;;;;;4903701;29;20063;-70
2022/10/15 12:31:00;;;;;;;4.88;3.47;;;20.10;82.60;;;;;;4906778;29;20385;-70
2022/10/15 12:33:50;;;;;;;3.05;2.08;;;20.00;82.90;;;;;;4898543;29;20063;-70
2022/10/15 12:36:27;;;;;;;4.00;3.08;;;19.90;83.70;;;;;;4899991;29;20496;-70
2022/10/15 12:39:00;;;;;;;3.95;2.22;;;19.80;83.40;;;;;;4898730;29;20032;-79
2022/10/15 12:41:47;;;;;;;3.50;2.10;;;19.70;84.20;;;;;;4898764;29;20036;-79
2022/10/15 12:44:31;;;;;;;3.08;1.92;;;19.70;84.50;;;;;;4897016;29;20080;-79
2022/10/15 12:46:58;;;;;;;2.53;2.15;;;19.70;84.90;;;;;;4897916;29;20037;-79
2022/10/15 12:49:29;;;;;;;1.98;1.85;;;19.70;85.00;;;;;;4905938;29;20031;-78
2022/10/15 12:51:56;;;;;;;1.90;1.80;;;19.70;85.30;;;;;;4900508;29;20021;-71
2022/10/15 12:54:43;;;;;;;2.67;1.70;;;19.60;85.10;;;;;;4894473;29;20037;-79
2022/10/15 12:57:34;;;;;;;2.60;1.98;;;19.70;85.50;;;;;;4902168;29;20127;-78
2022/10/15 13:00:23;;;;;;;1.95;1.50;;;19.70;85.10;;;;;;4900964;29;20894;-78
2022/10/15 13:02:50;;;;;;;3.25;1.70;;;19.70;85.60;;;;;;4901605;29;20111;-78
2022/10/15 13:05:33;;;;;;;2.83;1.67;;;19.60;85.80;;;;;;4899994;29;20036;-78
2022/10/15 13:08:02;;;;;;;2.00;1.50;;;19.70;86.10;;;;;;4897093;29;20036;-78